Time;durP1;ratioP1;P1;durP2;ratioP2;P2;SDS_P1;SDS_P2;PMS_P1;PMS_P2;Temp;Humidity;BMP_temperature;BMP_pressure;BME280_temperature;BME280_humidity;BME280_pressure;Samples;Min_cycle;Max_cycle;Signal;HPM_P1;HPM_P2
2023/10/13 00:01:47;;;;;;;3.42;2.50;;;18.70;75.10;;;;;;5133379;28;20172;-65
2023/10/13 00:04:12;;;;;;;2.60;2.40;;;18.70;75.10;;;;;;5132388;28;20216;-64
2023/10/13 00:06:38;;;;;;;3.78;2.40;;;18.70;75.10;;;;;;5133522;28;20541;-64
2023/10/13 00:09:04;;;;;;;2.10;1.90;;;18.70;75.10;;;;;;5133333;28;20595;-64
2023/10/13 00:11:29;;;;;;;4.70;2.58;;;18.70;75.20;;;;;;5132476;28;20702;-65
2023/10/13 00:13:55;;;;;;;3.47;2.20;;;18.70;75.10;;;;;;5134933;27;20259;-64
2023/10/13 00:16:21;;;;;;;2.65;2.45;;;18.70;75.10;;;;;;5137307;27;20204;-64
2023/10/13 00:18:54;;;;;;;2.95;2.40;;;18.70;75.10;;;;;;5136769;27;20183;-64
2023/10/13 00:21:30;;;;;;;2.95;2.20;;;18.70;75.10;;;;;;5137399;27;20259;-64
2023/10/13 00:23:56;;;;;;;2.55;2.22;;;18.70;75.20;;;;;;5136863;27;20331;-64
2023/10/13 00:26:29;;;;;;;2.58;2.30;;;18.70;75.20;;;;;;5137160;27;20661;-64
2023/10/13 00:29:01;;;;;;;2.63;2.42;;;18.70;75.20;;;;;;5137441;27;20180;-64
2023/10/13 00:31:32;;;;;;;2.85;2.50;;;18.70;75.20;;;;;;5136444;27;20631;-65
2023/10/13 00:34:01;;;;;;;5.75;2.50;;;18.70;75.20;;;;;;5136929;27;20263;-65
2023/10/13 00:36:26;;;;;;;2.40;2.17;;;18.70;75.20;;;;;;5137068;27;20710;-64
2023/10/13 00:38:52;;;;;;;3.55;2.40;;;18.70;75.20;;;;;;5136625;27;20218;-64
2023/10/13 00:41:33;;;;;;;2.97;2.42;;;18.70;75.20;;;;;;5136761;27;20259;-65
2023/10/13 00:44:04;;;;;;;2.65;2.45;;;18.70;75.20;;;;;;5137075;27;20235;-65
2023/10/13 00:46:35;;;;;;;3.13;2.35;;;18.70;75.20;;;;;;5136448;27;20168;-66
2023/10/13 00:49:01;;;;;;;2.97;2.28;;;18.70;75.20;;;;;;5136635;27;20582;-65
2023/10/13 00:51:34;;;;;;;2.05;1.95;;;18.70;75.20;;;;;;5136763;27;20173;-65
2023/10/13 00:54:02;;;;;;;2.42;2.22;;;18.70;75.20;;;;;;5119050;27;20172;-65
2023/10/13 00:56:28;;;;;;;3.25;2.67;;;18.70;75.20;;;;;;5118548;27;20177;-64
2023/10/13 00:58:57;;;;;;;2.60;2.40;;;18.70;75.20;;;;;;5118732;27;20176;-65
2023/10/13 01:01:28;;;;;;;2.40;2.20;;;18.70;75.20;;;;;;5135898;27;20183;-64
2023/10/13 01:03:59;;;;;;;2.58;2.38;;;18.70;75.20;;;;;;5136703;27;20204;-65
2023/10/13 01:06:25;;;;;;;3.65;2.53;;;18.70;75.20;;;;;;5118444;27;20244;-64
2023/10/13 01:08:57;;;;;;;2.58;2.13;;;18.70;75.30;;;;;;5136827;27;20180;-64
2023/10/13 01:11:23;;;;;;;2.72;2.45;;;18.70;75.30;;;;;;5136002;27;20650;-64
2023/10/13 01:13:51;;;;;;;2.47;2.28;;;18.70;75.30;;;;;;5135932;27;20172;-64
2023/10/13 01:16:17;;;;;;;3.22;2.17;;;18.70;75.30;;;;;;5136116;27;20305;-64
2023/10/13 01:18:49;;;;;;;2.28;2.17;;;18.70;75.30;;;;;;5136303;27;20666;-64
2023/10/13 01:21:16;;;;;;;2.47;2.28;;;18.70;75.20;;;;;;5135703;27;20183;-64
2023/10/13 01:23:46;;;;;;;2.95;2.30;;;18.70;75.20;;;;;;5136355;27;20211;-64
2023/10/13 01:26:13;;;;;;;2.38;2.22;;;18.70;75.30;;;;;;5134972;27;20168;-64
2023/10/13 01:28:46;;;;;;;2.30;2.10;;;18.70;75.30;;;;;;5135566;27;20199;-64
2023/10/13 01:31:24;;;;;;;2.53;2.33;;;18.70;75.30;;;;;;5135804;27;20195;-65
2023/10/13 01:33:54;;;;;;;2.25;2.05;;;18.70;76.10;;;;;;5136367;27;20176;-66
2023/10/13 01:36:22;;;;;;;2.47;2.08;;;18.70;75.40;;;;;;5135107;27;20173;-65
2023/10/13 01:38:49;;;;;;;3.28;2.20;;;18.70;75.20;;;;;;5135807;27;20181;-65
2023/10/13 01:41:15;;;;;;;2.45;2.25;;;18.70;75.30;;;;;;5135570;27;20292;-65
2023/10/13 01:43:41;;;;;;;2.75;2.55;;;18.70;75.20;;;;;;5135606;27;20216;-65
2023/10/13 01:46:09;;;;;;;2.80;2.58;;;18.70;75.30;;;;;;5135732;27;20175;-65
2023/10/13 01:48:38;;;;;;;2.60;2.40;;;18.70;75.30;;;;;;5134813;27;20273;-66
2023/10/13 01:51:05;;;;;;;2.70;2.20;;;18.70;75.40;;;;;;5135585;27;20623;-65
2023/10/13 01:53:31;;;;;;;2.67;2.17;;;18.70;75.30;;;;;;5135781;27;20255;-65
2023/10/13 01:56:05;;;;;;;2.45;2.25;;;18.70;75.30;;;;;;5135143;27;20259;-65
2023/10/13 01:58:30;;;;;;;2.38;2.17;;;18.70;75.40;;;;;;5135787;27;20691;-65
2023/10/13 02:00:56;;;;;;;2.70;2.30;;;18.70;75.30;;;;;;5135729;27;20172;-65
2023/10/13 02:03:22;;;;;;;2.85;2.65;;;18.70;75.40;;;;;;5134577;27;20208;-65
2023/10/13 02:05:48;;;;;;;2.38;2.17;;;18.70;75.40;;;;;;5135675;27;20173;-65
2023/10/13 02:08:23;;;;;;;2.55;2.30;;;18.70;75.40;;;;;;5135147;27;20173;-65
2023/10/13 02:10:53;;;;;;;2.70;2.45;;;18.70;75.40;;;;;;5134880;27;20176;-65
2023/10/13 02:13:19;;;;;;;2.13;1.98;;;18.70;75.40;;;;;;5135398;27;20180;-65
2023/10/13 02:15:48;;;;;;;2.28;2.08;;;18.70;75.40;;;;;;5135312;27;20511;-64
2023/10/13 02:18:20;;;;;;;2.47;2.28;;;18.70;75.40;;;;;;5134414;27;20180;-64
2023/10/13 02:20:54;;;;;;;2.90;2.70;;;18.70;75.40;;;;;;5135146;27;20168;-65
2023/10/13 02:23:20;;;;;;;2.88;2.25;;;18.70;75.40;;;;;;5135011;27;20218;-64
2023/10/13 02:25:45;;;;;;;2.20;2.10;;;18.70;75.40;;;;;;5134262;27;20195;-65
2023/10/13 02:28:14;;;;;;;2.22;2.05;;;18.70;75.40;;;;;;5134923;27;20694;-65
2023/10/13 02:30:44;;;;;;;2.50;2.30;;;18.70;75.40;;;;;;5134089;27;20511;-66
2023/10/13 02:33:13;;;;;;;2.75;2.30;;;18.70;75.40;;;;;;5134976;27;20184;-65
2023/10/13 02:35:43;;;;;;;2.38;2.17;;;18.70;75.40;;;;;;5134728;27;20635;-65
2023/10/13 02:38:11;;;;;;;2.45;2.30;;;18.60;75.40;;;;;;5133799;27;20759;-64
2023/10/13 02:40:38;;;;;;;2.50;2.30;;;18.70;75.40;;;;;;5134875;27;20169;-64
2023/10/13 02:43:07;;;;;;;2.38;2.17;;;18.60;75.30;;;;;;5134721;27;20243;-64
2023/10/13 02:45:35;;;;;;;3.10;2.45;;;18.60;75.30;;;;;;5133964;27;20199;-65
2023/10/13 02:48:12;;;;;;;2.85;2.25;;;18.70;75.40;;;;;;5134343;27;20224;-65
2023/10/13 02:50:42;;;;;;;3.80;2.35;;;18.70;75.40;;;;;;5134673;27;20626;-65
2023/10/13 02:53:12;;;;;;;3.05;2.25;;;18.60;75.30;;;;;;5133603;27;20187;-65
2023/10/13 02:55:39;;;;;;;3.08;2.17;;;18.60;75.30;;;;;;5134693;27;20188;-65
2023/10/13 02:58:04;;;;;;;2.28;2.17;;;18.60;75.30;;;;;;5134380;27;20181;-65
2023/10/13 03:00:31;;;;;;;2.80;2.25;;;18.60;75.30;;;;;;5133623;27;20528;-65
2023/10/13 03:03:01;;;;;;;2.30;2.10;;;18.70;75.40;;;;;;5134249;27;20282;-64
2023/10/13 03:05:29;;;;;;;2.08;1.98;;;18.60;75.30;;;;;;5134377;27;20189;-64
2023/10/13 03:07:55;;;;;;;2.05;1.85;;;18.60;75.30;;;;;;5133857;27;20196;-64
2023/10/13 03:10:21;;;;;;;2.22;2.05;;;18.70;75.40;;;;;;5134155;27;20200;-65
2023/10/13 03:12:49;;;;;;;2.90;2.67;;;18.60;75.30;;;;;;5133659;27;20205;-65
2023/10/13 03:15:19;;;;;;;2.42;2.22;;;18.70;75.40;;;;;;5133899;27;20644;-65
2023/10/13 03:17:45;;;;;;;2.35;2.15;;;18.60;75.30;;;;;;5134073;27;20169;-65
2023/10/13 03:20:15;;;;;;;2.47;2.25;;;18.60;75.30;;;;;;5133258;27;20259;-64
2023/10/13 03:22:47;;;;;;;2.10;2.00;;;18.60;75.30;;;;;;5133884;27;20510;-64
2023/10/13 03:26:04;;;;;;;2.28;2.08;;;18.60;75.30;;;;;;5133853;27;20283;-64
2023/10/13 03:28:05;;;;;;;2.63;2.42;;;18.60;75.30;;;;;;5124430;27;20229;-65
2023/10/13 03:30:35;;;;;;;2.20;2.00;;;18.60;75.30;;;;;;5134027;27;20270;-65
2023/10/13 03:33:06;;;;;;;2.10;2.00;;;18.60;75.30;;;;;;5133847;27;20168;-65
2023/10/13 03:35:42;;;;;;;2.28;2.10;;;18.60;75.40;;;;;;5133237;27;20177;-65
2023/10/13 03:38:17;;;;;;;3.25;2.25;;;18.70;75.40;;;;;;5133791;27;20263;-64
2023/10/13 03:41:12;;;;;;;3.67;2.35;;;18.60;75.30;;;;;;5133771;27;20176;-65
2023/10/13 03:43:51;;;;;;;2.20;2.00;;;18.60;75.30;;;;;;5133643;27;20290;-65
2023/10/13 03:46:21;;;;;;;3.88;2.20;;;18.60;75.30;;;;;;5133369;27;20172;-65
2023/10/13 03:49:01;;;;;;;1.92;1.83;;;18.60;75.30;;;;;;5118065;27;20231;-65
2023/10/13 03:51:30;;;;;;;2.33;2.00;;;18.60;75.30;;;;;;5124744;27;20232;-65
2023/10/13 03:53:56;;;;;;;2.50;2.30;;;18.60;75.30;;;;;;5133862;27;20180;-64
2023/10/13 03:56:26;;;;;;;3.50;2.20;;;18.60;76.10;;;;;;5132733;27;20195;-65
2023/10/13 03:58:59;;;;;;;2.15;2.05;;;18.60;76.20;;;;;;5133635;27;20260;-65
2023/10/13 04:01:31;;;;;;;2.28;2.10;;;18.60;75.30;;;;;;5133134;27;20172;-64
2023/10/13 04:04:04;;;;;;;2.15;1.98;;;18.60;75.30;;;;;;5132945;28;20204;-64
2023/10/13 04:17:15;;;;;;;2.17;2.08;;;18.60;75.30;;;;;;5132411;28;20183;-65
2023/10/13 04:25:35;;;;;;;1.98;1.83;;;18.60;75.30;;;;;;5132221;28;20207;-65
2023/10/13 04:33:36;;;;;;;2.35;2.15;;;18.60;75.30;;;;;;5133334;28;20301;-65
2023/10/13 04:36:16;;;;;;;2.20;2.00;;;18.60;75.30;;;;;;5133067;28;20630;-65
2023/10/13 04:38:56;;;;;;;2.33;1.88;;;18.60;75.30;;;;;;5132363;28;20180;-65
2023/10/13 04:41:39;;;;;;;2.10;2.00;;;18.60;75.30;;;;;;5117009;28;20183;-64
2023/10/13 04:44:23;;;;;;;2.17;2.08;;;18.60;75.30;;;;;;5133048;28;20215;-64
2023/10/13 04:49:28;;;;;;;2.25;2.05;;;18.60;75.30;;;;;;5132797;28;20688;-65
2023/10/13 04:52:13;;;;;;;2.75;2.13;;;18.60;75.30;;;;;;5131716;28;20246;-64
2023/10/13 04:54:49;;;;;;;2.15;1.95;;;18.60;75.30;;;;;;5133023;28;20255;-64
2023/10/13 04:57:33;;;;;;;2.10;1.90;;;18.60;75.30;;;;;;5132821;28;20164;-64
2023/10/13 06:29:40;;;;;;;2.03;1.92;;;18.60;75.60;;;;;;5134338;27;20184;-65
2023/10/13 06:32:12;;;;;;;3.00;2.05;;;18.60;75.60;;;;;;5135049;27;20520;-64
2023/10/13 06:34:42;;;;;;;2.00;1.90;;;18.60;75.60;;;;;;5135046;27;20243;-64
2023/10/13 06:37:25;;;;;;;2.28;2.03;;;18.60;75.60;;;;;;5133914;27;20564;-64
2023/10/13 06:39:56;;;;;;;2.28;2.08;;;18.60;75.60;;;;;;5134970;27;20191;-64
2023/10/13 06:42:28;;;;;;;3.42;2.30;;;18.60;75.60;;;;;;5134469;27;20524;-65
2023/10/13 06:44:54;;;;;;;2.38;2.17;;;18.60;75.60;;;;;;5134098;27;20212;-64
2023/10/13 06:47:24;;;;;;;2.97;2.30;;;18.60;75.50;;;;;;5134523;27;20217;-65
2023/10/13 06:49:51;;;;;;;2.20;2.10;;;18.60;75.60;;;;;;5134753;27;20263;-65
2023/10/13 06:52:22;;;;;;;2.30;1.67;;;18.60;75.50;;;;;;5133438;27;20561;-65
2023/10/13 06:54:50;;;;;;;1.90;1.80;;;18.60;75.60;;;;;;5134598;27;20201;-65
2023/10/13 06:57:20;;;;;;;2.40;2.20;;;18.60;75.60;;;;;;5134554;27;20199;-65
2023/10/13 06:59:46;;;;;;;2.67;2.47;;;18.60;75.60;;;;;;5133764;27;20168;-65
2023/10/13 07:02:21;;;;;;;2.42;1.85;;;18.60;75.60;;;;;;5134281;27;20192;-64
2023/10/13 07:04:47;;;;;;;2.50;2.08;;;18.60;75.60;;;;;;5134140;27;20567;-65
2023/10/13 07:07:15;;;;;;;2.78;2.30;;;18.60;75.60;;;;;;5133831;27;20172;-65
2023/10/13 07:09:49;;;;;;;1.92;1.83;;;18.60;75.70;;;;;;5134419;27;20183;-64
2023/10/13 07:12:22;;;;;;;2.13;2.03;;;18.60;75.70;;;;;;5133314;27;20626;-64
2023/10/13 07:14:51;;;;;;;4.15;2.15;;;18.60;75.70;;;;;;5134145;27;20179;-65
2023/10/13 07:17:23;;;;;;;2.78;2.17;;;18.60;75.70;;;;;;5133676;27;20259;-65
2023/10/13 07:19:56;;;;;;;3.20;2.17;;;18.60;75.80;;;;;;5133701;27;20172;-65
2023/10/13 07:22:22;;;;;;;2.25;2.10;;;18.60;75.90;;;;;;5133622;27;20184;-65
2023/10/13 07:24:49;;;;;;;4.22;2.58;;;18.70;76.00;;;;;;5133408;27;20251;-65
2023/10/13 07:27:23;;;;;;;3.17;2.22;;;18.70;76.10;;;;;;5132520;27;20251;-65
2023/10/13 07:29:56;;;;;;;2.72;2.38;;;18.70;76.50;;;;;;5133932;27;20176;-65
2023/10/13 07:32:25;;;;;;;3.38;2.25;;;18.70;76.20;;;;;;5133861;27;20184;-65
2023/10/13 07:34:55;;;;;;;3.38;2.30;;;18.70;76.10;;;;;;5133253;27;20173;-67
2023/10/13 07:37:29;;;;;;;2.38;2.17;;;18.70;76.40;;;;;;5133643;27;20221;-67
2023/10/13 07:39:57;;;;;;;6.13;2.53;;;18.70;76.50;;;;;;5116196;27;20179;-66
2023/10/13 07:42:30;;;;;;;5.55;2.30;;;18.70;76.70;;;;;;5133261;27;20179;-67
2023/10/13 07:44:56;;;;;;;2.72;2.30;;;18.70;76.50;;;;;;5133826;27;20546;-67
2023/10/13 07:47:24;;;;;;;4.07;2.30;;;18.70;76.30;;;;;;5132677;27;20631;-67
2023/10/13 07:49:50;;;;;;;3.60;2.40;;;18.70;76.20;;;;;;5133870;27;20251;-66
2023/10/13 07:55:33;;;;;;;6.47;2.75;;;18.70;76.20;;;;;;5132592;27;20202;-67
2023/10/13 07:57:34;;;;;;;5.40;2.50;;;18.70;76.30;;;;;;5118899;27;20188;-67
2023/10/13 08:00:11;;;;;;;3.83;2.40;;;18.70;76.20;;;;;;5133540;27;20165;-66
2023/10/13 08:02:49;;;;;;;3.85;2.50;;;18.70;76.30;;;;;;5132701;27;20175;-67
2023/10/13 08:08:08;;;;;;;5.80;2.85;;;18.70;76.20;;;;;;5094549;28;20192;-66
2023/10/13 08:10:36;;;;;;;4.30;2.50;;;18.70;76.30;;;;;;5133227;28;20773;-67
2023/10/13 08:13:12;;;;;;;5.28;2.20;;;18.70;76.40;;;;;;5133012;28;20577;-66
2023/10/13 08:15:40;;;;;;;3.50;2.42;;;18.70;76.40;;;;;;5132554;28;20179;-66
2023/10/13 08:18:10;;;;;;;8.48;2.60;;;18.70;76.40;;;;;;5132705;28;20190;-67
2023/10/13 08:20:39;;;;;;;5.72;2.75;;;18.70;76.50;;;;;;5133136;28;20200;-66
2023/10/13 08:23:14;;;;;;;4.00;2.67;;;18.70;76.70;;;;;;5132415;28;20287;-66
2023/10/13 08:31:22;;;;;;;5.05;3.08;;;18.70;76.50;;;;;;5132351;28;20710;-67
2023/10/13 08:33:48;;;;;;;8.75;3.42;;;18.70;76.80;;;;;;5133273;28;20168;-67
2023/10/13 08:36:30;;;;;;;4.10;2.83;;;18.80;77.20;;;;;;5136208;27;20255;-68
2023/10/13 08:38:56;;;;;;;6.47;3.03;;;18.80;77.30;;;;;;5137621;27;20185;-68
2023/10/13 08:43:51;;;;;;;5.15;2.92;;;18.80;77.00;;;;;;5136628;27;20227;-68
2023/10/13 08:46:30;;;;;;;6.45;3.13;;;18.90;77.00;;;;;;5118972;27;20187;-69
2023/10/13 08:49:15;;;;;;;4.15;3.05;;;18.90;77.00;;;;;;5137005;27;20176;-69
2023/10/13 08:51:45;;;;;;;5.07;2.70;;;18.90;77.00;;;;;;5135806;27;20230;-69
2023/10/13 08:54:19;;;;;;;5.38;2.92;;;18.90;77.00;;;;;;5136782;27;20172;-69
2023/10/13 08:56:54;;;;;;;5.57;3.38;;;18.90;76.90;;;;;;5103411;27;20225;-71
2023/10/13 08:59:33;;;;;;;6.57;3.13;;;19.00;77.00;;;;;;5135841;27;20176;-66
2023/10/13 09:02:15;;;;;;;4.70;2.88;;;18.90;76.90;;;;;;5136929;27;20173;-65
2023/10/13 09:04:44;;;;;;;5.78;3.38;;;18.90;77.10;;;;;;5135943;27;20219;-63
2023/10/13 09:07:15;;;;;;;27.95;5.65;;;18.90;77.20;;;;;;5136534;27;20172;-75
2023/10/13 09:12:20;;;;;;;18.70;4.90;;;19.00;77.00;;;;;;5135867;27;20187;-68
2023/10/13 09:14:59;;;;;;;11.43;3.88;;;19.00;77.10;;;;;;5136706;27;20260;-68
2023/10/13 09:17:35;;;;;;;7.88;2.97;;;19.00;77.00;;;;;;5136733;27;20196;-65
2023/10/13 09:25:34;;;;;;;10.13;3.40;;;19.00;76.90;;;;;;5136003;27;20213;-65
2023/10/13 09:28:00;;;;;;;9.48;3.50;;;19.00;77.00;;;;;;5136342;27;20176;-65
2023/10/13 09:30:28;;;;;;;10.30;2.83;;;19.00;77.00;;;;;;5136027;27;20180;-66
2023/10/13 09:33:08;;;;;;;10.82;3.58;;;19.00;77.10;;;;;;5135757;27;20553;-66
2023/10/13 09:35:36;;;;;;;11.25;3.80;;;19.10;77.30;;;;;;5136227;27;20259;-65
2023/10/13 09:38:02;;;;;;;6.25;3.10;;;19.00;77.30;;;;;;5135748;27;20626;-64
2023/10/13 09:40:37;;;;;;;7.05;3.22;;;19.00;77.20;;;;;;5135221;27;20177;-65
2023/10/13 09:43:07;;;;;;;8.80;3.45;;;19.00;77.40;;;;;;5135851;27;20601;-66
2023/10/13 09:45:38;;;;;;;7.28;4.03;;;19.00;77.40;;;;;;5135789;27;20184;-65
2023/10/13 09:48:06;;;;;;;8.77;3.22;;;19.00;77.30;;;;;;5135173;27;20320;-66
2023/10/13 09:50:37;;;;;;;6.20;3.65;;;19.00;77.50;;;;;;5100876;27;20216;-66
2023/10/13 09:53:05;;;;;;;7.75;2.90;;;19.00;77.30;;;;;;5101290;27;20543;-67
2023/10/13 09:55:39;;;;;;;7.75;3.28;;;19.00;77.30;;;;;;5116857;27;20662;-67
2023/10/13 09:58:35;;;;;;;7.93;3.63;;;19.00;77.30;;;;;;5117729;27;20173;-66
2023/10/13 10:00:57;;;;;;;7.95;3.20;;;19.00;77.10;;;;;;5134033;27;20188;-66
2023/10/13 10:03:30;;;;;;;5.85;3.40;;;19.00;77.20;;;;;;5117451;27;20211;-65
2023/10/13 10:06:39;;;;;;;7.57;3.08;;;19.00;77.10;;;;;;5135596;27;20188;-65
2023/10/13 10:08:56;;;;;;;9.38;3.20;;;19.00;77.10;;;;;;5131506;27;20313;-66
2023/10/13 10:11:45;;;;;;;5.22;3.38;;;19.00;77.10;;;;;;5135217;27;20169;-66
2023/10/13 10:14:41;;;;;;;6.68;3.47;;;18.90;77.10;;;;;;5116667;27;20176;-65
2023/10/13 10:17:08;;;;;;;10.13;3.80;;;19.00;77.30;;;;;;5119238;27;20168;-65
2023/10/13 10:19:55;;;;;;;8.15;3.55;;;19.00;77.20;;;;;;5134932;27;20172;-65
2023/10/13 10:22:33;;;;;;;6.90;3.20;;;19.00;77.00;;;;;;5133991;27;20180;-66
2023/10/13 10:25:02;;;;;;;6.00;3.15;;;19.00;77.10;;;;;;5134859;27;20705;-65
2023/10/13 10:27:32;;;;;;;4.70;2.85;;;19.00;77.10;;;;;;5135251;27;20176;-65
2023/10/13 10:29:57;;;;;;;8.68;3.33;;;19.00;77.10;;;;;;5134227;27;20183;-66
2023/10/13 10:32:36;;;;;;;7.75;3.55;;;19.00;77.00;;;;;;5134586;27;20176;-66
2023/10/13 10:35:14;;;;;;;3.45;3.08;;;19.00;77.00;;;;;;5134685;27;20183;-66
2023/10/13 10:37:49;;;;;;;4.65;3.20;;;19.00;77.00;;;;;;5117295;27;20630;-66
2023/10/13 10:40:41;;;;;;;6.80;3.72;;;19.00;77.00;;;;;;5134798;27;20186;-66
2023/10/13 10:43:08;;;;;;;4.95;3.20;;;19.00;77.00;;;;;;5133688;27;20204;-65
2023/10/13 10:45:35;;;;;;;5.55;3.53;;;18.90;77.00;;;;;;5134524;27;20177;-66
2023/10/13 10:48:16;;;;;;;7.40;3.53;;;19.00;77.10;;;;;;5134707;27;20384;-66
2023/10/13 10:50:42;;;;;;;6.63;3.58;;;19.00;77.00;;;;;;5133743;27;20682;-66
2023/10/13 10:53:08;;;;;;;7.20;3.53;;;19.00;77.00;;;;;;5134529;27;20176;-67
2023/10/13 10:55:36;;;;;;;6.95;3.95;;;19.00;77.00;;;;;;5134348;27;20587;-67
2023/10/13 10:58:04;;;;;;;5.95;3.30;;;19.00;77.00;;;;;;5133643;27;20180;-66
2023/10/13 11:00:41;;;;;;;8.35;4.20;;;19.00;77.00;;;;;;5134454;27;20168;-67
2023/10/13 11:03:07;;;;;;;5.25;3.53;;;19.10;77.30;;;;;;5134381;27;20212;-65
2023/10/13 11:05:46;;;;;;;6.65;4.00;;;19.10;77.10;;;;;;5133698;27;20631;-66
2023/10/13 11:08:37;;;;;;;5.15;3.47;;;19.10;77.30;;;;;;5134147;27;20259;-65
2023/10/13 11:11:17;;;;;;;7.50;3.88;;;19.10;77.10;;;;;;5133673;27;20226;-65
2023/10/13 11:13:54;;;;;;;6.93;3.97;;;19.10;76.80;;;;;;5133985;27;20656;-65
2023/10/13 11:16:34;;;;;;;7.28;3.72;;;19.20;77.00;;;;;;5134048;27;20246;-65
2023/10/13 11:19:05;;;;;;;5.70;3.85;;;19.20;76.80;;;;;;5133413;27;20179;-65
2023/10/13 11:21:30;;;;;;;7.55;3.60;;;19.20;76.80;;;;;;5134034;27;20249;-68
2023/10/13 11:23:57;;;;;;;8.70;4.55;;;19.20;76.90;;;;;;5134180;27;20570;-69
2023/10/13 11:26:33;;;;;;;6.43;4.22;;;19.20;77.00;;;;;;5132009;27;20221;-68
2023/10/13 11:28:59;;;;;;;5.40;4.05;;;19.20;77.10;;;;;;5133904;27;20197;-69
2023/10/13 11:31:24;;;;;;;8.82;3.70;;;19.20;77.20;;;;;;5133515;27;20199;-69
2023/10/13 11:33:50;;;;;;;6.22;4.07;;;19.20;77.20;;;;;;5133468;27;20264;-70
2023/10/13 11:36:22;;;;;;;5.20;3.70;;;19.20;77.20;;;;;;5133554;27;20644;-65
2023/10/13 11:41:18;;;;;;;5.03;3.63;;;19.20;77.20;;;;;;5132688;27;20176;-65
2023/10/13 11:51:45;;;;;;;5.78;4.05;;;19.20;77.30;;;;;;5133580;27;20230;-66
2023/10/13 11:54:21;;;;;;;6.82;4.05;;;19.20;77.10;;;;;;5132617;27;20291;-65
2023/10/13 11:56:47;;;;;;;5.57;4.13;;;19.20;77.00;;;;;;5115272;28;20168;-66
2023/10/13 11:59:17;;;;;;;5.82;3.50;;;19.10;77.00;;;;;;5133388;27;20180;-66
2023/10/13 12:12:22;;;;;;;9.93;4.10;;;19.20;76.90;;;;;;5140087;27;20197;-66
2023/10/13 12:14:57;;;;;;;6.97;3.90;;;19.10;76.80;;;;;;5139649;27;20180;-65
2023/10/13 12:17:28;;;;;;;6.32;3.97;;;19.20;76.70;;;;;;5139799;27;20586;-65
2023/10/13 12:19:54;;;;;;;6.38;3.75;;;19.20;76.60;;;;;;5140445;27;20176;-65
2023/10/13 12:22:35;;;;;;;7.53;4.40;;;19.20;76.60;;;;;;5139277;27;20188;-65
2023/10/13 12:25:05;;;;;;;4.50;3.28;;;19.20;76.60;;;;;;5140113;27;20571;-65
2023/10/13 12:27:45;;;;;;;6.70;3.95;;;19.20;76.60;;;;;;5139892;27;20653;-65
2023/10/13 12:30:13;;;;;;;4.82;3.55;;;19.20;76.50;;;;;;5139368;27;20184;-65
2023/10/13 12:32:53;;;;;;;7.35;4.38;;;19.20;76.60;;;;;;5140195;27;20168;-65
2023/10/13 12:35:35;;;;;;;7.43;4.32;;;19.20;76.50;;;;;;5139993;27;20194;-66
2023/10/13 12:38:08;;;;;;;6.85;4.43;;;19.20;76.60;;;;;;5139769;27;20175;-65
2023/10/13 12:49:28;;;;;;;6.47;4.13;;;19.20;76.50;;;;;;5139911;27;20669;-66
2023/10/13 12:51:51;;;;;;;7.68;4.60;;;19.20;76.50;;;;;;5139331;27;20709;-65
2023/10/13 12:54:35;;;;;;;4.55;4.13;;;19.20;76.50;;;;;;5139529;27;20172;-65
2023/10/13 12:57:00;;;;;;;7.22;4.60;;;19.20;76.50;;;;;;5138663;27;20173;-66
2023/10/13 12:59:27;;;;;;;6.15;4.25;;;19.20;76.60;;;;;;5139837;27;20245;-65
2023/10/13 13:01:53;;;;;;;8.98;4.18;;;19.20;76.50;;;;;;5140071;27;20532;-65
2023/10/13 13:04:20;;;;;;;7.65;4.28;;;19.20;76.50;;;;;;5138730;27;20683;-65
2023/10/13 13:06:53;;;;;;;10.00;4.20;;;19.20;76.50;;;;;;5139708;27;20180;-65
2023/10/13 13:09:28;;;;;;;6.43;4.07;;;19.20;76.50;;;;;;5139432;27;20555;-65
2023/10/13 13:11:57;;;;;;;4.78;4.13;;;19.20;76.40;;;;;;5139165;27;20528;-65
2023/10/13 13:14:28;;;;;;;7.28;3.85;;;19.20;76.40;;;;;;5139718;27;20169;-65
2023/10/13 13:17:06;;;;;;;7.10;3.83;;;19.20;76.40;;;;;;5139772;27;20180;-65
2023/10/13 13:19:41;;;;;;;5.90;3.92;;;19.20;76.40;;;;;;5138762;27;20222;-65
2023/10/13 13:22:13;;;;;;;5.72;3.88;;;19.20;76.40;;;;;;5135766;27;20186;-64
2023/10/13 13:24:45;;;;;;;6.38;4.18;;;19.20;76.40;;;;;;5135622;27;20274;-65
2023/10/13 13:27:13;;;;;;;5.25;4.10;;;19.20;76.50;;;;;;5136082;27;20643;-65
2023/10/13 13:29:40;;;;;;;5.60;4.40;;;19.20;76.50;;;;;;5136145;27;20180;-65
2023/10/13 13:32:07;;;;;;;5.93;4.10;;;19.20;76.40;;;;;;5135402;27;20634;-65
2023/10/13 13:34:32;;;;;;;5.00;3.80;;;19.20;76.40;;;;;;5136258;27;20181;-65
2023/10/13 13:37:00;;;;;;;5.13;3.78;;;19.20;76.40;;;;;;5136156;27;20171;-65
2023/10/13 13:39:29;;;;;;;6.00;4.50;;;19.20;76.40;;;;;;5135339;27;20169;-65
2023/10/13 13:41:58;;;;;;;5.45;4.18;;;19.20;76.40;;;;;;5136218;27;20221;-65
2023/10/13 13:44:29;;;;;;;5.70;4.10;;;19.20;76.50;;;;;;5135773;27;20204;-66
2023/10/13 13:46:56;;;;;;;8.25;4.93;;;19.20;76.40;;;;;;5135576;27;20157;-66
2023/10/13 13:49:29;;;;;;;4.93;4.45;;;19.20;76.50;;;;;;5135510;27;20695;-66
2023/10/13 13:51:55;;;;;;;5.30;4.07;;;19.10;76.50;;;;;;5135955;27;20220;-64
2023/10/13 13:54:20;;;;;;;6.72;4.10;;;19.20;76.50;;;;;;5134815;27;20180;-65
2023/10/13 13:56:47;;;;;;;6.25;4.38;;;19.10;76.50;;;;;;5135754;27;20190;-66
2023/10/13 13:59:15;;;;;;;4.32;3.92;;;19.10;76.40;;;;;;5135408;27;20249;-66
2023/10/13 14:01:44;;;;;;;7.18;4.60;;;19.10;76.50;;;;;;5134227;27;20233;-65
2023/10/13 14:04:09;;;;;;;5.50;4.80;;;19.10;76.50;;;;;;5135353;27;20645;-64
2023/10/13 14:06:35;;;;;;;10.70;4.32;;;19.10;76.40;;;;;;5135609;27;20241;-64
2023/10/13 14:09:03;;;;;;;5.20;4.47;;;19.10;77.30;;;;;;5134761;27;20168;-64
2023/10/13 14:14:12;;;;;;;6.25;4.35;;;19.10;76.40;;;;;;5134902;27;20187;-64
2023/10/13 14:16:44;;;;;;;7.22;4.63;;;19.10;76.40;;;;;;5135510;27;20216;-63
2023/10/13 14:19:11;;;;;;;6.65;4.30;;;19.10;76.40;;;;;;5116778;27;20590;-63
2023/10/13 14:21:36;;;;;;;4.82;3.92;;;19.10;76.40;;;;;;5135165;27;20173;-63
2023/10/13 14:24:03;;;;;;;5.88;4.15;;;19.10;76.40;;;;;;5134947;27;20684;-63
2023/10/13 14:26:28;;;;;;;6.05;4.03;;;19.10;76.50;;;;;;5134891;27;20184;-63
2023/10/13 14:29:07;;;;;;;6.75;4.63;;;19.10;76.40;;;;;;5134618;27;20173;-64
2023/10/13 14:31:34;;;;;;;6.75;4.15;;;19.10;76.50;;;;;;5134903;27;20289;-64
2023/10/13 14:33:59;;;;;;;5.43;3.97;;;19.10;76.50;;;;;;5134676;27;20177;-64
2023/10/13 14:36:28;;;;;;;5.82;4.75;;;19.10;76.50;;;;;;5134284;27;20174;-64
2023/10/13 14:38:56;;;;;;;8.65;4.25;;;19.10;76.50;;;;;;5135071;27;20630;-64
2023/10/13 14:41:22;;;;;;;6.78;4.20;;;19.10;76.50;;;;;;5134574;27;20662;-65
2023/10/13 14:43:47;;;;;;;5.32;4.13;;;19.10;76.50;;;;;;5134244;27;20305;-64
2023/10/13 14:46:14;;;;;;;6.68;4.35;;;19.10;76.40;;;;;;5134644;27;20263;-64
2023/10/13 14:48:40;;;;;;;6.68;4.50;;;19.10;76.40;;;;;;5134909;27;20177;-64
2023/10/13 14:51:16;;;;;;;6.45;4.55;;;19.10;76.50;;;;;;5133797;27;20220;-66
2023/10/13 14:53:48;;;;;;;6.72;4.40;;;19.10;76.50;;;;;;5134871;27;20175;-65
2023/10/13 14:56:14;;;;;;;5.82;5.18;;;18.90;76.40;;;;;;5133817;27;20182;-65
2023/10/13 14:58:43;;;;;;;5.97;4.13;;;19.10;76.60;;;;;;5134419;27;20567;-65
2023/10/13 15:01:15;;;;;;;5.07;4.15;;;19.10;76.50;;;;;;5134469;27;20251;-65
2023/10/13 15:03:42;;;;;;;5.15;3.90;;;19.10;76.50;;;;;;5133437;27;20204;-65
2023/10/13 15:06:08;;;;;;;6.93;4.15;;;19.00;77.20;;;;;;5134501;27;20168;-65
2023/10/13 15:08:33;;;;;;;5.07;4.25;;;19.10;76.50;;;;;;5115807;27;20178;-65
2023/10/13 15:11:12;;;;;;;5.70;4.22;;;19.10;76.50;;;;;;5133594;27;20540;-66
2023/10/13 15:13:39;;;;;;;6.85;4.45;;;19.00;76.40;;;;;;5134368;27;20229;-65
2023/10/13 15:16:14;;;;;;;4.72;4.07;;;19.10;76.50;;;;;;5133955;27;20634;-65
2023/10/13 15:18:40;;;;;;;6.90;4.28;;;19.00;76.40;;;;;;5133539;27;20172;-65
2023/10/13 15:21:08;;;;;;;5.22;4.47;;;19.00;76.40;;;;;;5134240;27;20577;-65
2023/10/13 15:23:42;;;;;;;5.05;4.10;;;19.00;76.40;;;;;;5134054;27;20296;-65
2023/10/13 15:26:10;;;;;;;6.85;3.92;;;19.00;76.40;;;;;;5133399;27;20247;-65
2023/10/13 15:28:48;;;;;;;5.65;4.50;;;19.00;76.50;;;;;;5134019;27;20172;-65
2023/10/13 15:31:22;;;;;;;5.97;4.45;;;19.00;76.50;;;;;;5133274;27;20172;-65
2023/10/13 15:33:52;;;;;;;5.22;4.10;;;19.00;76.50;;;;;;5134189;27;20175;-66
2023/10/13 15:36:19;;;;;;;5.38;4.13;;;19.00;76.50;;;;;;5133795;27;20537;-65
2023/10/13 15:38:46;;;;;;;4.88;3.90;;;19.00;76.50;;;;;;5133121;27;20172;-66
2023/10/13 15:41:12;;;;;;;5.55;4.03;;;19.00;76.50;;;;;;5133544;27;20203;-66
2023/10/13 15:43:42;;;;;;;5.80;4.43;;;19.00;76.50;;;;;;5133362;27;20248;-65
2023/10/13 15:46:14;;;;;;;8.13;4.45;;;19.00;76.50;;;;;;5132529;27;20172;-65
2023/10/13 15:48:40;;;;;;;6.18;4.30;;;19.00;76.50;;;;;;5116481;27;20176;-65
2023/10/13 15:51:12;;;;;;;4.65;4.00;;;19.00;76.50;;;;;;5133430;27;20223;-65
2023/10/13 15:53:37;;;;;;;5.10;4.47;;;19.00;76.50;;;;;;5115574;27;20179;-64